aviador You're here:

CYSC Decoded Metar

SHERBROOKE in QC, CANADA
Report Time2017-10-17 20:00:00
UTC Time2017-10-17 20:27:00
Flight Rules vfr VFR
Wind220° at 07 kt
W.Decomp.*RWY 32: 0.9 kt HW 6.9 kt LCW
W.Rank220° ranks 10
Current wind is above 220° avg. (5.7)
Visibility9999 m
Phenomena:N/A
Clouds:Broken 100 Hf
Overcast 120 Hf
Expected CloudBase > 4,400 ft AGL from Temp-Dew spread
Ceiling10,000 ft
Temp10°C (ISA -3)
Dew Point-1°C (47% RH)
AAT5.4°C
QNH1019 hPa
Density Alt259 ft
Elevation791 ft
Report Wrong Elevation
Raw Report
CYSC 172000Z AUTO 22007KT 9SM BKN100 OVC120 10/M01 A3008 RMK
SLP196=

Extra information for CYSC:More info

Metar Taf Metar & Taf Last 4 Metars F.Rules Stats Wind Profile Meteogram Temp Stats Airport Information Weather charts Add Link Nearby VenuesMetar ALERT Operation Metar Decoded Social comments